<?xml version="1.0" encoding="UTF-8" standalone="no" ?>
<gpx xmlns="http://www.topografix.com/GPX/1/1" xmlns:xsi="http://www.w3.org/2001/XMLSchema-instance" xsi:schemaLocation="http://www.topografix.com/GPX/1/1 http://www.topografix.com/GPX/1/1/gpx.xsd" version="1.1" creator="VisuGPX - https://www.visugpx.com">
  <metadata>
    <name>Parcours VTT Aglo 2021</name>
  </metadata>
  <trk>
    <name><![CDATA[Bleu Cornillon Frigoulet]]></name>
    <extensions>
      <line xmlns="http://www.topografix.com/GPX/gpx_style/0/2">
        <color>0000fa</color>
        <width>4</width>
      </line>
    </extensions>
    <trkseg>
      <trkpt lat="44.21846" lon="4.48561">
        <ele>87</ele>
        <time>2021-07-04T13:04:45Z</time>
      </trkpt>
      <trkpt lat="44.21846" lon="4.48561">
        <ele>87</ele>
        <time>2021-07-04T13:04:45Z</time>
      </trkpt>
      <trkpt lat="44.21835" lon="4.48526">
        <ele>85</ele>
        <time>2021-07-04T13:04:51Z</time>
      </trkpt>
      <trkpt lat="44.22012" lon="4.48288">
        <ele>81</ele>
        <time>2021-07-04T13:05:49Z</time>
      </trkpt>
      <trkpt lat="44.22163" lon="4.48048">
        <ele>84</ele>
        <time>2021-07-04T13:06:42Z</time>
      </trkpt>
      <trkpt lat="44.21912" lon="4.47766">
        <ele>77</ele>
        <time>2021-07-04T13:07:58Z</time>
      </trkpt>
      <trkpt lat="44.21792" lon="4.47607">
        <ele>77</ele>
        <time>2021-07-04T13:08:36Z</time>
      </trkpt>
      <trkpt lat="44.21648" lon="4.47263">
        <ele>79</ele>
        <time>2021-07-04T13:09:43Z</time>
      </trkpt>
      <trkpt lat="44.21642" lon="4.47067">
        <ele>79</ele>
        <time>2021-07-04T13:10:16Z</time>
      </trkpt>
      <trkpt lat="44.2183" lon="4.47">
        <ele>79</ele>
        <time>2021-07-04T13:11:01Z</time>
      </trkpt>
      <trkpt lat="44.22009" lon="4.46782">
        <ele>82</ele>
        <time>2021-07-04T13:11:56Z</time>
      </trkpt>
      <trkpt lat="44.22149" lon="4.4677">
        <ele>95</ele>
        <time>2021-07-04T13:12:29Z</time>
      </trkpt>
      <trkpt lat="44.22108" lon="4.46563">
        <ele>95</ele>
        <time>2021-07-04T13:13:05Z</time>
      </trkpt>
      <trkpt lat="44.22061" lon="4.46339">
        <ele>86</ele>
        <time>2021-07-04T13:13:44Z</time>
      </trkpt>
      <trkpt lat="44.22116" lon="4.46277">
        <ele>84</ele>
        <time>2021-07-04T13:14:01Z</time>
      </trkpt>
      <trkpt lat="44.2221" lon="4.46219">
        <ele>81</ele>
        <time>2021-07-04T13:14:25Z</time>
      </trkpt>
      <trkpt lat="44.22248" lon="4.46157">
        <ele>79</ele>
        <time>2021-07-04T13:14:38Z</time>
      </trkpt>
      <trkpt lat="44.22282" lon="4.4606">
        <ele>80</ele>
        <time>2021-07-04T13:14:56Z</time>
      </trkpt>
      <trkpt lat="44.22294" lon="4.46022">
        <ele>80</ele>
        <time>2021-07-04T13:15:03Z</time>
      </trkpt>
      <trkpt lat="44.22371" lon="4.45951">
        <ele>82</ele>
        <time>2021-07-04T13:15:25Z</time>
      </trkpt>
      <trkpt lat="44.22454" lon="4.45877">
        <ele>81</ele>
        <time>2021-07-04T13:15:48Z</time>
      </trkpt>
      <trkpt lat="44.22547" lon="4.45793">
        <ele>83</ele>
        <time>2021-07-04T13:16:14Z</time>
      </trkpt>
      <trkpt lat="44.22596" lon="4.4571">
        <ele>84</ele>
        <time>2021-07-04T13:16:32Z</time>
      </trkpt>
      <trkpt lat="44.22621" lon="4.45659">
        <ele>83</ele>
        <time>2021-07-04T13:16:42Z</time>
      </trkpt>
      <trkpt lat="44.22629" lon="4.45537">
        <ele>83</ele>
        <time>2021-07-04T13:17:03Z</time>
      </trkpt>
      <trkpt lat="44.22633" lon="4.45418">
        <ele>86</ele>
        <time>2021-07-04T13:17:23Z</time>
      </trkpt>
      <trkpt lat="44.22669" lon="4.45234">
        <ele>87</ele>
        <time>2021-07-04T13:17:55Z</time>
      </trkpt>
      <trkpt lat="44.22685" lon="4.45018">
        <ele>93</ele>
        <time>2021-07-04T13:18:31Z</time>
      </trkpt>
      <trkpt lat="44.22701" lon="4.4497">
        <ele>90</ele>
        <time>2021-07-04T13:18:40Z</time>
      </trkpt>
      <trkpt lat="44.22801" lon="4.44855">
        <ele>84</ele>
        <time>2021-07-04T13:19:10Z</time>
      </trkpt>
      <trkpt lat="44.22923" lon="4.44731">
        <ele>88</ele>
        <time>2021-07-04T13:19:45Z</time>
      </trkpt>
      <trkpt lat="44.23055" lon="4.44591">
        <ele>87</ele>
        <time>2021-07-04T13:20:24Z</time>
      </trkpt>
      <trkpt lat="44.23129" lon="4.44579">
        <ele>83</ele>
        <time>2021-07-04T13:20:41Z</time>
      </trkpt>
      <trkpt lat="44.23158" lon="4.44525">
        <ele>88</ele>
        <time>2021-07-04T13:20:53Z</time>
      </trkpt>
      <trkpt lat="44.23178" lon="4.4441">
        <ele>92</ele>
        <time>2021-07-04T13:21:12Z</time>
      </trkpt>
      <trkpt lat="44.23226" lon="4.44301">
        <ele>92</ele>
        <time>2021-07-04T13:21:34Z</time>
      </trkpt>
      <trkpt lat="44.233" lon="4.44234">
        <ele>89</ele>
        <time>2021-07-04T13:21:54Z</time>
      </trkpt>
      <trkpt lat="44.23427" lon="4.44109">
        <ele>92</ele>
        <time>2021-07-04T13:22:31Z</time>
      </trkpt>
      <trkpt lat="44.23529" lon="4.44017">
        <ele>92</ele>
        <time>2021-07-04T13:22:59Z</time>
      </trkpt>
      <trkpt lat="44.23761" lon="4.43903">
        <ele>92</ele>
        <time>2021-07-04T13:23:57Z</time>
      </trkpt>
      <trkpt lat="44.23886" lon="4.43911">
        <ele>93</ele>
        <time>2021-07-04T13:24:26Z</time>
      </trkpt>
      <trkpt lat="44.23968" lon="4.43867">
        <ele>98</ele>
        <time>2021-07-04T13:24:46Z</time>
      </trkpt>
      <trkpt lat="44.23993" lon="4.43925">
        <ele>96</ele>
        <time>2021-07-04T13:24:58Z</time>
      </trkpt>
      <trkpt lat="44.24119" lon="4.43994">
        <ele>98</ele>
        <time>2021-07-04T13:25:29Z</time>
      </trkpt>
      <trkpt lat="44.24181" lon="4.43984">
        <ele>104</ele>
        <time>2021-07-04T13:25:44Z</time>
      </trkpt>
      <trkpt lat="44.24215" lon="4.44098">
        <ele>99</ele>
        <time>2021-07-04T13:26:04Z</time>
      </trkpt>
      <trkpt lat="44.24303" lon="4.44217">
        <ele>97</ele>
        <time>2021-07-04T13:26:33Z</time>
      </trkpt>
      <trkpt lat="44.24419" lon="4.44396">
        <ele>96</ele>
        <time>2021-07-04T13:27:13Z</time>
      </trkpt>
      <trkpt lat="44.24551" lon="4.44588">
        <ele>95</ele>
        <time>2021-07-04T13:27:58Z</time>
      </trkpt>
      <trkpt lat="44.24687" lon="4.44807">
        <ele>91</ele>
        <time>2021-07-04T13:28:46Z</time>
      </trkpt>
      <trkpt lat="44.2479" lon="4.44831">
        <ele>94</ele>
        <time>2021-07-04T13:29:11Z</time>
      </trkpt>
      <trkpt lat="44.24825" lon="4.44972">
        <ele>96</ele>
        <time>2021-07-04T13:29:36Z</time>
      </trkpt>
      <trkpt lat="44.24625" lon="4.45073">
        <ele>93</ele>
        <time>2021-07-04T13:30:25Z</time>
      </trkpt>
      <trkpt lat="44.24441" lon="4.45098">
        <ele>93</ele>
        <time>2021-07-04T13:31:09Z</time>
      </trkpt>
      <trkpt lat="44.2436" lon="4.45121">
        <ele>92</ele>
        <time>2021-07-04T13:31:28Z</time>
      </trkpt>
      <trkpt lat="44.24226" lon="4.45219">
        <ele>90</ele>
        <time>2021-07-04T13:32:03Z</time>
      </trkpt>
      <trkpt lat="44.2425" lon="4.45289">
        <ele>92</ele>
        <time>2021-07-04T13:32:16Z</time>
      </trkpt>
      <trkpt lat="44.2425" lon="4.45433">
        <ele>94</ele>
        <time>2021-07-04T13:32:40Z</time>
      </trkpt>
      <trkpt lat="44.24222" lon="4.45466">
        <ele>96</ele>
        <time>2021-07-04T13:32:49Z</time>
      </trkpt>
      <trkpt lat="44.24181" lon="4.45489">
        <ele>96</ele>
        <time>2021-07-04T13:32:59Z</time>
      </trkpt>
      <trkpt lat="44.24175" lon="4.45668">
        <ele>98</ele>
        <time>2021-07-04T13:33:29Z</time>
      </trkpt>
      <trkpt lat="44.24185" lon="4.45743">
        <ele>101</ele>
        <time>2021-07-04T13:33:42Z</time>
      </trkpt>
      <trkpt lat="44.24119" lon="4.4579">
        <ele>105</ele>
        <time>2021-07-04T13:33:59Z</time>
      </trkpt>
      <trkpt lat="44.24108" lon="4.45872">
        <ele>102</ele>
        <time>2021-07-04T13:34:13Z</time>
      </trkpt>
      <trkpt lat="44.24035" lon="4.45838">
        <ele>107</ele>
        <time>2021-07-04T13:34:31Z</time>
      </trkpt>
      <trkpt lat="44.24048" lon="4.45796">
        <ele>110</ele>
        <time>2021-07-04T13:34:39Z</time>
      </trkpt>
      <trkpt lat="44.24044" lon="4.45748">
        <ele>114</ele>
        <time>2021-07-04T13:34:47Z</time>
      </trkpt>
      <trkpt lat="44.24043" lon="4.45727">
        <ele>116</ele>
        <time>2021-07-04T13:34:50Z</time>
      </trkpt>
      <trkpt lat="44.24025" lon="4.45716">
        <ele>117</ele>
        <time>2021-07-04T13:34:55Z</time>
      </trkpt>
      <trkpt lat="44.23993" lon="4.45716">
        <ele>119</ele>
        <time>2021-07-04T13:35:03Z</time>
      </trkpt>
      <trkpt lat="44.23941" lon="4.45755">
        <ele>117</ele>
        <time>2021-07-04T13:35:16Z</time>
      </trkpt>
      <trkpt lat="44.23911" lon="4.45787">
        <ele>116</ele>
        <time>2021-07-04T13:35:25Z</time>
      </trkpt>
      <trkpt lat="44.23962" lon="4.45818">
        <ele>113</ele>
        <time>2021-07-04T13:35:38Z</time>
      </trkpt>
      <trkpt lat="44.24004" lon="4.4585">
        <ele>109</ele>
        <time>2021-07-04T13:35:49Z</time>
      </trkpt>
      <trkpt lat="44.24" lon="4.45918">
        <ele>106</ele>
        <time>2021-07-04T13:36:01Z</time>
      </trkpt>
      <trkpt lat="44.24001" lon="4.45933">
        <ele>106</ele>
        <time>2021-07-04T13:36:03Z</time>
      </trkpt>
      <trkpt lat="44.24019" lon="4.45974">
        <ele>106</ele>
        <time>2021-07-04T13:36:11Z</time>
      </trkpt>
      <trkpt lat="44.24017" lon="4.46006">
        <ele>107</ele>
        <time>2021-07-04T13:36:17Z</time>
      </trkpt>
      <trkpt lat="44.23972" lon="4.461">
        <ele>111</ele>
        <time>2021-07-04T13:36:36Z</time>
      </trkpt>
      <trkpt lat="44.23924" lon="4.46168">
        <ele>114</ele>
        <time>2021-07-04T13:36:52Z</time>
      </trkpt>
      <trkpt lat="44.23912" lon="4.4619">
        <ele>114</ele>
        <time>2021-07-04T13:36:56Z</time>
      </trkpt>
      <trkpt lat="44.23952" lon="4.46237">
        <ele>115</ele>
        <time>2021-07-04T13:37:08Z</time>
      </trkpt>
      <trkpt lat="44.23985" lon="4.46271">
        <ele>117</ele>
        <time>2021-07-04T13:37:18Z</time>
      </trkpt>
      <trkpt lat="44.2398" lon="4.46294">
        <ele>118</ele>
        <time>2021-07-04T13:37:22Z</time>
      </trkpt>
      <trkpt lat="44.23993" lon="4.46351">
        <ele>121</ele>
        <time>2021-07-04T13:37:32Z</time>
      </trkpt>
      <trkpt lat="44.23985" lon="4.4644">
        <ele>127</ele>
        <time>2021-07-04T13:37:47Z</time>
      </trkpt>
      <trkpt lat="44.23979" lon="4.46556">
        <ele>131</ele>
        <time>2021-07-04T13:38:06Z</time>
      </trkpt>
      <trkpt lat="44.23969" lon="4.46597">
        <ele>133</ele>
        <time>2021-07-04T13:38:14Z</time>
      </trkpt>
      <trkpt lat="44.23986" lon="4.46631">
        <ele>134</ele>
        <time>2021-07-04T13:38:21Z</time>
      </trkpt>
      <trkpt lat="44.23935" lon="4.47017">
        <ele>131</ele>
        <time>2021-07-04T13:39:26Z</time>
      </trkpt>
      <trkpt lat="44.23925" lon="4.47051">
        <ele>131</ele>
        <time>2021-07-04T13:39:32Z</time>
      </trkpt>
      <trkpt lat="44.23932" lon="4.471">
        <ele>133</ele>
        <time>2021-07-04T13:39:41Z</time>
      </trkpt>
      <trkpt lat="44.23925" lon="4.4717">
        <ele>134</ele>
        <time>2021-07-04T13:39:53Z</time>
      </trkpt>
      <trkpt lat="44.23927" lon="4.47255">
        <ele>138</ele>
        <time>2021-07-04T13:40:07Z</time>
      </trkpt>
      <trkpt lat="44.23967" lon="4.4729">
        <ele>141</ele>
        <time>2021-07-04T13:40:18Z</time>
      </trkpt>
      <trkpt lat="44.23973" lon="4.47344">
        <ele>142</ele>
        <time>2021-07-04T13:40:27Z</time>
      </trkpt>
      <trkpt lat="44.23991" lon="4.4741">
        <ele>144</ele>
        <time>2021-07-04T13:40:39Z</time>
      </trkpt>
      <trkpt lat="44.24001" lon="4.47509">
        <ele>153</ele>
        <time>2021-07-04T13:40:56Z</time>
      </trkpt>
      <trkpt lat="44.24" lon="4.47558">
        <ele>156</ele>
        <time>2021-07-04T13:41:04Z</time>
      </trkpt>
      <trkpt lat="44.23988" lon="4.47636">
        <ele>158</ele>
        <time>2021-07-04T13:41:17Z</time>
      </trkpt>
      <trkpt lat="44.23983" lon="4.4769">
        <ele>159</ele>
        <time>2021-07-04T13:41:26Z</time>
      </trkpt>
      <trkpt lat="44.23977" lon="4.47708">
        <ele>159</ele>
        <time>2021-07-04T13:41:30Z</time>
      </trkpt>
      <trkpt lat="44.23982" lon="4.47886">
        <ele>170</ele>
        <time>2021-07-04T13:41:59Z</time>
      </trkpt>
      <trkpt lat="44.24023" lon="4.47924">
        <ele>178</ele>
        <time>2021-07-04T13:42:11Z</time>
      </trkpt>
      <trkpt lat="44.24012" lon="4.48108">
        <ele>185</ele>
        <time>2021-07-04T13:42:42Z</time>
      </trkpt>
      <trkpt lat="44.24045" lon="4.48222">
        <ele>190</ele>
        <time>2021-07-04T13:43:02Z</time>
      </trkpt>
      <trkpt lat="44.24075" lon="4.48315">
        <ele>189</ele>
        <time>2021-07-04T13:43:19Z</time>
      </trkpt>
      <trkpt lat="44.24055" lon="4.48346">
        <ele>180</ele>
        <time>2021-07-04T13:43:26Z</time>
      </trkpt>
      <trkpt lat="44.24054" lon="4.48373">
        <ele>177</ele>
        <time>2021-07-04T13:43:31Z</time>
      </trkpt>
      <trkpt lat="44.24073" lon="4.48418">
        <ele>176</ele>
        <time>2021-07-04T13:43:40Z</time>
      </trkpt>
      <trkpt lat="44.24093" lon="4.48575">
        <ele>170</ele>
        <time>2021-07-04T13:44:06Z</time>
      </trkpt>
      <trkpt lat="44.241" lon="4.48614">
        <ele>169</ele>
        <time>2021-07-04T13:44:13Z</time>
      </trkpt>
      <trkpt lat="44.24113" lon="4.48632">
        <ele>170</ele>
        <time>2021-07-04T13:44:17Z</time>
      </trkpt>
      <trkpt lat="44.24143" lon="4.4864">
        <ele>175</ele>
        <time>2021-07-04T13:44:24Z</time>
      </trkpt>
      <trkpt lat="44.24174" lon="4.48677">
        <ele>177</ele>
        <time>2021-07-04T13:44:34Z</time>
      </trkpt>
      <trkpt lat="44.24188" lon="4.48704">
        <ele>180</ele>
        <time>2021-07-04T13:44:40Z</time>
      </trkpt>
      <trkpt lat="44.24189" lon="4.48715">
        <ele>179</ele>
        <time>2021-07-04T13:44:41Z</time>
      </trkpt>
      <trkpt lat="44.24183" lon="4.48715">
        <ele>178</ele>
        <time>2021-07-04T13:44:43Z</time>
      </trkpt>
      <trkpt lat="44.24176" lon="4.48707">
        <ele>176</ele>
        <time>2021-07-04T13:44:45Z</time>
      </trkpt>
      <trkpt lat="44.24165" lon="4.48702">
        <ele>174</ele>
        <time>2021-07-04T13:44:48Z</time>
      </trkpt>
      <trkpt lat="44.24152" lon="4.48707">
        <ele>172</ele>
        <time>2021-07-04T13:44:51Z</time>
      </trkpt>
      <trkpt lat="44.24125" lon="4.48706">
        <ele>167</ele>
        <time>2021-07-04T13:44:57Z</time>
      </trkpt>
      <trkpt lat="44.24106" lon="4.48712">
        <ele>163</ele>
        <time>2021-07-04T13:45:02Z</time>
      </trkpt>
      <trkpt lat="44.24099" lon="4.48719">
        <ele>162</ele>
        <time>2021-07-04T13:45:04Z</time>
      </trkpt>
      <trkpt lat="44.24101" lon="4.48761">
        <ele>160</ele>
        <time>2021-07-04T13:45:11Z</time>
      </trkpt>
      <trkpt lat="44.2411" lon="4.48777">
        <ele>162</ele>
        <time>2021-07-04T13:45:14Z</time>
      </trkpt>
      <trkpt lat="44.24125" lon="4.48794">
        <ele>164</ele>
        <time>2021-07-04T13:45:19Z</time>
      </trkpt>
      <trkpt lat="44.24129" lon="4.48818">
        <ele>165</ele>
        <time>2021-07-04T13:45:23Z</time>
      </trkpt>
      <trkpt lat="44.24131" lon="4.48833">
        <ele>165</ele>
        <time>2021-07-04T13:45:25Z</time>
      </trkpt>
      <trkpt lat="44.24147" lon="4.48864">
        <ele>168</ele>
        <time>2021-07-04T13:45:32Z</time>
      </trkpt>
      <trkpt lat="44.24155" lon="4.48883">
        <ele>170</ele>
        <time>2021-07-04T13:45:35Z</time>
      </trkpt>
      <trkpt lat="44.24154" lon="4.48898">
        <ele>171</ele>
        <time>2021-07-04T13:45:38Z</time>
      </trkpt>
      <trkpt lat="44.24146" lon="4.48902">
        <ele>171</ele>
        <time>2021-07-04T13:45:40Z</time>
      </trkpt>
      <trkpt lat="44.24136" lon="4.48895">
        <ele>169</ele>
        <time>2021-07-04T13:45:42Z</time>
      </trkpt>
      <trkpt lat="44.24129" lon="4.48899">
        <ele>169</ele>
        <time>2021-07-04T13:45:44Z</time>
      </trkpt>
      <trkpt lat="44.24129" lon="4.48912">
        <ele>170</ele>
        <time>2021-07-04T13:45:46Z</time>
      </trkpt>
      <trkpt lat="44.24133" lon="4.48945">
        <ele>173</ele>
        <time>2021-07-04T13:45:52Z</time>
      </trkpt>
      <trkpt lat="44.24141" lon="4.48968">
        <ele>175</ele>
        <time>2021-07-04T13:45:56Z</time>
      </trkpt>
      <trkpt lat="44.24159" lon="4.48995">
        <ele>179</ele>
        <time>2021-07-04T13:46:02Z</time>
      </trkpt>
      <trkpt lat="44.24174" lon="4.49021">
        <ele>182</ele>
        <time>2021-07-04T13:46:08Z</time>
      </trkpt>
      <trkpt lat="44.24136" lon="4.49077">
        <ele>183</ele>
        <time>2021-07-04T13:46:21Z</time>
      </trkpt>
      <trkpt lat="44.24129" lon="4.49123">
        <ele>187</ele>
        <time>2021-07-04T13:46:29Z</time>
      </trkpt>
      <trkpt lat="44.24075" lon="4.49136">
        <ele>182</ele>
        <time>2021-07-04T13:46:42Z</time>
      </trkpt>
      <trkpt lat="44.24027" lon="4.49178">
        <ele>182</ele>
        <time>2021-07-04T13:46:55Z</time>
      </trkpt>
      <trkpt lat="44.24005" lon="4.49211">
        <ele>183</ele>
        <time>2021-07-04T13:47:02Z</time>
      </trkpt>
      <trkpt lat="44.23965" lon="4.49237">
        <ele>185</ele>
        <time>2021-07-04T13:47:13Z</time>
      </trkpt>
      <trkpt lat="44.23917" lon="4.49197">
        <ele>182</ele>
        <time>2021-07-04T13:47:26Z</time>
      </trkpt>
      <trkpt lat="44.23896" lon="4.49151">
        <ele>180</ele>
        <time>2021-07-04T13:47:35Z</time>
      </trkpt>
      <trkpt lat="44.23848" lon="4.49125">
        <ele>180</ele>
        <time>2021-07-04T13:47:47Z</time>
      </trkpt>
      <trkpt lat="44.23836" lon="4.49111">
        <ele>180</ele>
        <time>2021-07-04T13:47:51Z</time>
      </trkpt>
      <trkpt lat="44.23823" lon="4.49029">
        <ele>177</ele>
        <time>2021-07-04T13:48:05Z</time>
      </trkpt>
      <trkpt lat="44.23809" lon="4.48932">
        <ele>174</ele>
        <time>2021-07-04T13:48:21Z</time>
      </trkpt>
      <trkpt lat="44.23784" lon="4.48909">
        <ele>174</ele>
        <time>2021-07-04T13:48:28Z</time>
      </trkpt>
      <trkpt lat="44.23751" lon="4.48909">
        <ele>176</ele>
        <time>2021-07-04T13:48:36Z</time>
      </trkpt>
      <trkpt lat="44.23728" lon="4.48909">
        <ele>180</ele>
        <time>2021-07-04T13:48:41Z</time>
      </trkpt>
      <trkpt lat="44.23666" lon="4.48743">
        <ele>176</ele>
        <time>2021-07-04T13:49:13Z</time>
      </trkpt>
      <trkpt lat="44.2364" lon="4.48668">
        <ele>175</ele>
        <time>2021-07-04T13:49:26Z</time>
      </trkpt>
      <trkpt lat="44.23608" lon="4.48613">
        <ele>178</ele>
        <time>2021-07-04T13:49:38Z</time>
      </trkpt>
      <trkpt lat="44.23576" lon="4.48561">
        <ele>178</ele>
        <time>2021-07-04T13:49:50Z</time>
      </trkpt>
      <trkpt lat="44.23533" lon="4.48508">
        <ele>174</ele>
        <time>2021-07-04T13:50:03Z</time>
      </trkpt>
      <trkpt lat="44.23505" lon="4.48479">
        <ele>171</ele>
        <time>2021-07-04T13:50:11Z</time>
      </trkpt>
      <trkpt lat="44.2349" lon="4.48482">
        <ele>171</ele>
        <time>2021-07-04T13:50:15Z</time>
      </trkpt>
      <trkpt lat="44.23442" lon="4.48555">
        <ele>172</ele>
        <time>2021-07-04T13:50:31Z</time>
      </trkpt>
      <trkpt lat="44.23413" lon="4.48595">
        <ele>171</ele>
        <time>2021-07-04T13:50:41Z</time>
      </trkpt>
      <trkpt lat="44.23372" lon="4.4864">
        <ele>167</ele>
        <time>2021-07-04T13:50:53Z</time>
      </trkpt>
      <trkpt lat="44.23366" lon="4.48641">
        <ele>166</ele>
        <time>2021-07-04T13:50:55Z</time>
      </trkpt>
      <trkpt lat="44.23367" lon="4.48632">
        <ele>166</ele>
        <time>2021-07-04T13:50:56Z</time>
      </trkpt>
      <trkpt lat="44.23386" lon="4.48605">
        <ele>167</ele>
        <time>2021-07-04T13:51:02Z</time>
      </trkpt>
      <trkpt lat="44.23395" lon="4.48555">
        <ele>163</ele>
        <time>2021-07-04T13:51:11Z</time>
      </trkpt>
      <trkpt lat="44.23353" lon="4.4854">
        <ele>155</ele>
        <time>2021-07-04T13:51:21Z</time>
      </trkpt>
      <trkpt lat="44.23294" lon="4.48528">
        <ele>150</ele>
        <time>2021-07-04T13:51:35Z</time>
      </trkpt>
      <trkpt lat="44.23248" lon="4.48503">
        <ele>148</ele>
        <time>2021-07-04T13:51:47Z</time>
      </trkpt>
      <trkpt lat="44.23219" lon="4.4847">
        <ele>148</ele>
        <time>2021-07-04T13:51:55Z</time>
      </trkpt>
      <trkpt lat="44.23189" lon="4.48447">
        <ele>149</ele>
        <time>2021-07-04T13:52:03Z</time>
      </trkpt>
      <trkpt lat="44.2317" lon="4.48438">
        <ele>150</ele>
        <time>2021-07-04T13:52:08Z</time>
      </trkpt>
      <trkpt lat="44.23149" lon="4.48444">
        <ele>149</ele>
        <time>2021-07-04T13:52:13Z</time>
      </trkpt>
      <trkpt lat="44.23089" lon="4.48557">
        <ele>146</ele>
        <time>2021-07-04T13:52:37Z</time>
      </trkpt>
      <trkpt lat="44.23014" lon="4.48625">
        <ele>146</ele>
        <time>2021-07-04T13:52:57Z</time>
      </trkpt>
      <trkpt lat="44.2292" lon="4.48655">
        <ele>140</ele>
        <time>2021-07-04T13:53:20Z</time>
      </trkpt>
      <trkpt lat="44.22904" lon="4.48685">
        <ele>140</ele>
        <time>2021-07-04T13:53:26Z</time>
      </trkpt>
      <trkpt lat="44.22911" lon="4.48811">
        <ele>140</ele>
        <time>2021-07-04T13:53:47Z</time>
      </trkpt>
      <trkpt lat="44.22877" lon="4.48919">
        <ele>138</ele>
        <time>2021-07-04T13:54:07Z</time>
      </trkpt>
      <trkpt lat="44.22786" lon="4.48979">
        <ele>139</ele>
        <time>2021-07-04T13:54:31Z</time>
      </trkpt>
      <trkpt lat="44.22704" lon="4.49">
        <ele>141</ele>
        <time>2021-07-04T13:54:50Z</time>
      </trkpt>
      <trkpt lat="44.22658" lon="4.49024">
        <ele>145</ele>
        <time>2021-07-04T13:55:02Z</time>
      </trkpt>
      <trkpt lat="44.2264" lon="4.49017">
        <ele>146</ele>
        <time>2021-07-04T13:55:06Z</time>
      </trkpt>
      <trkpt lat="44.22623" lon="4.48934">
        <ele>144</ele>
        <time>2021-07-04T13:55:20Z</time>
      </trkpt>
      <trkpt lat="44.22529" lon="4.48856">
        <ele>158</ele>
        <time>2021-07-04T13:55:46Z</time>
      </trkpt>
      <trkpt lat="44.22532" lon="4.48768">
        <ele>161</ele>
        <time>2021-07-04T13:56:01Z</time>
      </trkpt>
      <trkpt lat="44.22555" lon="4.48614">
        <ele>150</ele>
        <time>2021-07-04T13:56:27Z</time>
      </trkpt>
      <trkpt lat="44.22535" lon="4.48511">
        <ele>141</ele>
        <time>2021-07-04T13:56:45Z</time>
      </trkpt>
      <trkpt lat="44.22483" lon="4.48483">
        <ele>139</ele>
        <time>2021-07-04T13:56:58Z</time>
      </trkpt>
      <trkpt lat="44.22449" lon="4.48509">
        <ele>139</ele>
        <time>2021-07-04T13:57:07Z</time>
      </trkpt>
      <trkpt lat="44.22388" lon="4.48622">
        <ele>140</ele>
        <time>2021-07-04T13:57:31Z</time>
      </trkpt>
      <trkpt lat="44.22334" lon="4.48734">
        <ele>133</ele>
        <time>2021-07-04T13:57:53Z</time>
      </trkpt>
      <trkpt lat="44.22315" lon="4.48761">
        <ele>134</ele>
        <time>2021-07-04T13:58:00Z</time>
      </trkpt>
      <trkpt lat="44.22259" lon="4.48765">
        <ele>130</ele>
        <time>2021-07-04T13:58:13Z</time>
      </trkpt>
      <trkpt lat="44.22236" lon="4.48731">
        <ele>123</ele>
        <time>2021-07-04T13:58:20Z</time>
      </trkpt>
      <trkpt lat="44.22202" lon="4.48706">
        <ele>115</ele>
        <time>2021-07-04T13:58:29Z</time>
      </trkpt>
      <trkpt lat="44.22125" lon="4.48713">
        <ele>112</ele>
        <time>2021-07-04T13:58:47Z</time>
      </trkpt>
      <trkpt lat="44.22048" lon="4.48733">
        <ele>108</ele>
        <time>2021-07-04T13:59:06Z</time>
      </trkpt>
      <trkpt lat="44.2197" lon="4.48768">
        <ele>104</ele>
        <time>2021-07-04T13:59:25Z</time>
      </trkpt>
      <trkpt lat="44.21909" lon="4.48807">
        <ele>99</ele>
        <time>2021-07-04T13:59:41Z</time>
      </trkpt>
      <trkpt lat="44.21892" lon="4.48805">
        <ele>97</ele>
        <time>2021-07-04T13:59:45Z</time>
      </trkpt>
      <trkpt lat="44.21869" lon="4.48752">
        <ele>92</ele>
        <time>2021-07-04T13:59:55Z</time>
      </trkpt>
      <trkpt lat="44.21869" lon="4.48709">
        <ele>91</ele>
        <time>2021-07-04T14:00:02Z</time>
      </trkpt>
      <trkpt lat="44.21874" lon="4.48671">
        <ele>91</ele>
        <time>2021-07-04T14:00:09Z</time>
      </trkpt>
      <trkpt lat="44.21831" lon="4.48654">
        <ele>92</ele>
        <time>2021-07-04T14:00:19Z</time>
      </trkpt>
      <trkpt lat="44.21815" lon="4.48601">
        <ele>90</ele>
        <time>2021-07-04T14:00:29Z</time>
      </trkpt>
      <trkpt lat="44.21828" lon="4.48572">
        <ele>88</ele>
        <time>2021-07-04T14:00:34Z</time>
      </trkpt>
    </trkseg>
  </trk>
</gpx>